createdAt,value
2023-04-06T00:01:01.176Z,7.90
2023-04-06T00:03:28.158Z,7.90
2023-04-06T00:05:55.068Z,8.00
2023-04-06T00:08:22.547Z,8.00
2023-04-06T00:10:49.333Z,8.00
2023-04-06T00:13:16.315Z,8.10
2023-04-06T00:15:43.305Z,8.10
2023-04-06T00:18:10.273Z,8.10
2023-04-06T00:20:37.171Z,8.00
2023-04-06T00:23:03.948Z,8.10
2023-04-06T00:25:31.110Z,8.10
2023-04-06T00:27:58.332Z,8.10
2023-04-06T00:30:25.597Z,8.10
2023-04-06T00:32:52.466Z,8.20
2023-04-06T00:35:19.577Z,8.10
2023-04-06T00:37:49.245Z,8.10
2023-04-06T00:40:16.682Z,8.20
2023-04-06T00:42:43.627Z,8.10
2023-04-06T00:45:11.173Z,8.10
2023-04-06T00:47:38.161Z,8.10
2023-04-06T00:50:05.436Z,8.10
2023-04-06T00:52:32.283Z,8.10
2023-04-06T00:54:59.052Z,8.10
2023-04-06T00:57:26.015Z,8.10
2023-04-06T00:59:54.005Z,8.10
2023-04-06T01:02:21.073Z,8.20
2023-04-06T01:04:48.189Z,8.10
2023-04-06T01:07:14.967Z,8.20
2023-04-06T01:09:43.013Z,8.20
2023-04-06T01:12:10.074Z,8.20
2023-04-06T01:14:36.903Z,8.20
2023-04-06T01:17:03.885Z,8.20
2023-04-06T01:19:30.707Z,8.30
2023-04-06T01:21:57.639Z,8.20
2023-04-06T01:24:24.542Z,8.30
2023-04-06T01:26:51.722Z,8.30
2023-04-06T01:29:18.515Z,8.20
2023-04-06T01:31:45.611Z,8.20
2023-04-06T01:34:12.460Z,8.20
2023-04-06T01:36:39.234Z,8.20
2023-04-06T01:39:06.330Z,8.20
2023-04-06T01:41:33.338Z,8.20
2023-04-06T01:44:00.281Z,8.20
2023-04-06T01:46:27.295Z,8.20
2023-04-06T01:48:54.183Z,8.20
2023-04-06T01:51:21.352Z,8.20
2023-04-06T01:53:49.376Z,8.20
2023-04-06T01:56:16.337Z,8.30
2023-04-06T01:58:43.505Z,8.30
2023-04-06T02:01:10.623Z,8.40
2023-04-06T02:03:37.481Z,8.30
2023-04-06T02:06:04.956Z,8.30
2023-04-06T02:08:31.909Z,8.40
2023-04-06T02:10:58.801Z,8.40
2023-04-06T02:13:25.700Z,8.30
2023-04-06T02:15:52.526Z,8.20
2023-04-06T02:18:19.607Z,8.30
2023-04-06T02:20:46.779Z,8.30
2023-04-06T02:23:13.683Z,8.30
2023-04-06T02:25:41.283Z,8.40
2023-04-06T02:28:08.362Z,8.30
2023-04-06T02:30:35.615Z,8.40
2023-04-06T02:33:03.094Z,8.50
2023-04-06T02:35:31.621Z,8.50
2023-04-06T02:37:58.622Z,8.50
2023-04-06T02:40:25.709Z,8.40
2023-04-06T02:42:52.694Z,8.50
2023-04-06T02:45:19.539Z,8.60
2023-04-06T02:47:46.455Z,8.60
2023-04-06T02:50:13.312Z,8.50
2023-04-06T02:52:40.123Z,8.50
2023-04-06T02:55:08.738Z,8.50
2023-04-06T02:57:35.644Z,8.70
2023-04-06T03:00:02.584Z,8.70
2023-04-06T03:02:29.476Z,8.60
2023-04-06T03:04:56.481Z,8.60
2023-04-06T03:07:23.486Z,8.70
2023-04-06T03:09:50.784Z,8.70
2023-04-06T03:12:17.761Z,8.70
2023-04-06T03:14:44.669Z,8.70
2023-04-06T03:17:11.567Z,8.70
2023-04-06T03:19:38.480Z,8.70
2023-04-06T03:22:05.330Z,8.70
2023-04-06T03:24:32.173Z,8.70
2023-04-06T03:26:59.044Z,8.70
2023-04-06T03:29:25.822Z,8.70
2023-04-06T03:31:52.603Z,8.70
2023-04-06T03:34:19.387Z,8.70
2023-04-06T03:36:47.147Z,8.80
2023-04-06T03:39:15.167Z,8.70
2023-04-06T03:41:42.038Z,8.80
2023-04-06T03:44:08.894Z,8.80
2023-04-06T03:46:35.885Z,8.80
2023-04-06T03:49:03.283Z,8.80
2023-04-06T03:51:30.373Z,8.80
2023-04-06T03:53:57.278Z,8.80
2023-04-06T03:56:24.065Z,8.80
2023-04-06T03:58:51.902Z,8.70
2023-04-06T04:01:22.108Z,8.70
2023-04-06T04:03:51.446Z,8.80
2023-04-06T04:06:18.670Z,8.80
2023-04-06T04:08:45.732Z,8.80
2023-04-06T04:11:12.547Z,8.80
2023-04-06T04:13:39.484Z,8.90
2023-04-06T04:16:06.469Z,9.00
2023-04-06T04:18:33.292Z,8.90
2023-04-06T04:21:00.284Z,8.90
2023-04-06T04:23:27.107Z,8.90
2023-04-06T04:25:53.954Z,8.90
2023-04-06T04:28:20.856Z,8.90
2023-04-06T04:30:47.753Z,8.90
2023-04-06T04:33:14.545Z,8.90
2023-04-06T04:35:41.426Z,8.90
2023-04-06T04:38:08.286Z,8.90
2023-04-06T04:40:35.093Z,9.00
2023-04-06T04:43:01.864Z,8.90
2023-04-06T04:45:28.789Z,8.90
2023-04-06T04:47:55.903Z,9.00
2023-04-06T04:50:22.822Z,9.00
2023-04-06T04:52:49.604Z,9.00
2023-04-06T04:55:16.618Z,9.10
2023-04-06T04:57:43.522Z,9.00
2023-04-06T05:00:10.952Z,9.10
2023-04-06T05:02:37.869Z,9.20
2023-04-06T05:05:05.178Z,9.20
2023-04-06T05:07:32.130Z,9.10
2023-04-06T05:09:58.955Z,9.10
2023-04-06T05:12:26.270Z,9.10
2023-04-06T05:14:53.094Z,9.10
2023-04-06T05:17:19.925Z,9.00
2023-04-06T05:19:47.266Z,9.10
2023-04-06T05:22:17.166Z,9.20
2023-04-06T05:24:44.353Z,9.20
2023-04-06T05:27:11.334Z,9.30
2023-04-06T05:29:38.194Z,9.30
2023-04-06T05:32:05.436Z,9.20
2023-04-06T05:34:32.423Z,9.30
2023-04-06T05:36:59.201Z,9.30
2023-04-06T05:39:26.622Z,9.40
2023-04-06T05:41:53.542Z,9.40
2023-04-06T05:44:20.448Z,9.30
2023-04-06T05:46:50.702Z,9.40
2023-04-06T05:49:17.631Z,9.50
2023-04-06T05:51:44.409Z,9.50
2023-04-06T05:54:11.224Z,9.50
2023-04-06T05:56:38.009Z,9.50
2023-04-06T05:59:04.871Z,9.70
2023-04-06T06:01:32.089Z,9.70
2023-04-06T06:03:58.933Z,9.80
2023-04-06T06:06:26.189Z,9.80
2023-04-06T06:08:53.039Z,9.90
2023-04-06T06:11:20.199Z,9.90
2023-04-06T06:13:47.174Z,10.00
2023-04-06T06:16:14.050Z,10.10
2023-04-06T06:18:40.912Z,10.20
2023-04-06T06:21:07.704Z,10.30
2023-04-06T06:23:34.537Z,10.40
2023-04-06T06:26:02.137Z,10.40
2023-04-06T06:28:28.981Z,10.50
2023-04-06T06:30:55.838Z,10.50
2023-04-06T06:33:23.028Z,10.50
2023-04-06T06:35:51.282Z,10.60
2023-04-06T06:38:18.632Z,10.70
2023-04-06T06:40:46.970Z,10.80
2023-04-06T06:43:14.023Z,10.90
2023-04-06T06:45:43.381Z,10.90
2023-04-06T06:48:10.353Z,11.00
2023-04-06T06:50:37.363Z,11.10
2023-04-06T06:53:04.307Z,11.00
2023-04-06T06:55:31.169Z,11.00
2023-04-06T06:57:58.086Z,11.10
2023-04-06T07:00:25.001Z,11.10
2023-04-06T07:02:51.958Z,11.10
2023-04-06T07:05:27.688Z,11.30
2023-04-06T07:07:55.991Z,11.40
2023-04-06T07:10:23.473Z,11.50
2023-04-06T07:12:50.375Z,11.50
2023-04-06T07:15:18.506Z,11.30
2023-04-06T07:17:50.354Z,11.40
2023-04-06T07:20:17.301Z,11.40
2023-04-06T07:22:49.373Z,11.40
2023-04-06T07:25:16.364Z,11.40
2023-04-06T07:27:43.332Z,11.40
2023-04-06T07:30:13.512Z,11.30
2023-04-06T07:32:40.379Z,11.30
2023-04-06T07:35:07.409Z,11.30
2023-04-06T07:37:34.202Z,11.30
2023-04-06T07:40:01.087Z,11.40
2023-04-06T07:42:28.007Z,11.40
2023-04-06T07:44:54.827Z,11.50
2023-04-06T07:47:22.129Z,11.50
2023-04-06T07:49:48.993Z,11.60
2023-04-06T07:52:16.053Z,11.60
2023-04-06T07:54:43.322Z,11.60
2023-04-06T07:57:10.261Z,11.70
2023-04-06T07:59:37.401Z,11.60
2023-04-06T08:02:04.319Z,11.70
2023-04-06T08:04:31.407Z,11.60
2023-04-06T08:06:58.260Z,11.80
2023-04-06T08:09:25.315Z,11.80
2023-04-06T08:11:52.142Z,11.70
2023-04-06T08:14:19.530Z,11.80
2023-04-06T08:16:46.843Z,11.90
2023-04-06T08:19:13.734Z,11.90
2023-04-06T08:21:41.095Z,12.00
2023-04-06T08:24:08.400Z,12.10
2023-04-06T08:26:35.608Z,12.10
2023-04-06T08:29:02.495Z,12.00
2023-04-06T08:31:29.459Z,11.90
2023-04-06T08:33:56.588Z,11.90
2023-04-06T08:36:24.067Z,11.90
2023-04-06T08:38:51.333Z,11.90
2023-04-06T08:41:18.864Z,11.90
2023-04-06T08:43:48.122Z,12.00
2023-04-06T08:46:16.260Z,12.00
2023-04-06T08:48:44.206Z,12.10
2023-04-06T08:51:22.709Z,12.10
2023-04-06T08:53:51.049Z,12.10
2023-04-06T08:56:18.531Z,12.20
2023-04-06T08:58:46.156Z,12.30
2023-04-06T09:01:19.154Z,12.40
2023-04-06T09:03:47.650Z,12.30
2023-04-06T09:06:15.747Z,12.40
2023-04-06T09:08:43.029Z,12.30
2023-04-06T09:11:10.382Z,12.30
2023-04-06T09:13:49.481Z,12.30
2023-04-06T09:16:30.687Z,12.30
2023-04-06T09:19:21.658Z,12.20
2023-04-06T09:21:48.415Z,12.30
2023-04-06T09:24:15.284Z,12.30
2023-04-06T09:26:52.762Z,12.20
2023-04-06T09:29:28.336Z,12.30
2023-04-06T09:32:10.870Z,12.30
2023-04-06T09:34:40.998Z,12.30
2023-04-06T09:37:18.942Z,12.30
2023-04-06T09:39:46.728Z,12.40
2023-04-06T09:42:27.732Z,12.30
2023-04-06T09:44:55.444Z,12.20
2023-04-06T09:47:25.843Z,12.10
2023-04-06T09:49:59.320Z,11.90
2023-04-06T09:52:38.245Z,11.60
2023-04-06T09:55:08.981Z,11.40
2023-04-06T09:57:53.886Z,11.40
2023-04-06T10:00:24.376Z,11.40
2023-04-06T10:03:09.731Z,11.30
2023-04-06T10:05:47.940Z,11.20
2023-04-06T10:08:16.333Z,11.20
2023-04-06T10:10:43.557Z,11.20
2023-04-06T10:13:12.601Z,11.10
2023-04-06T10:15:41.344Z,11.10
2023-04-06T10:18:11.186Z,11.10
2023-04-06T10:20:56.138Z,11.10
2023-04-06T10:23:36.797Z,11.10
2023-04-06T10:26:04.457Z,11.10
2023-04-06T10:28:38.604Z,11.10
2023-04-06T10:31:08.716Z,11.10
2023-04-06T10:33:36.304Z,11.00
2023-04-06T10:36:12.078Z,10.90
2023-04-06T10:38:41.728Z,10.90
2023-04-06T10:41:12.859Z,10.90
2023-04-06T10:43:41.638Z,10.80
2023-04-06T10:46:10.546Z,10.80
2023-04-06T10:48:46.580Z,10.70
2023-04-06T10:51:14.302Z,10.70
2023-04-06T10:53:44.756Z,10.70
2023-04-06T10:56:13.101Z,10.70
2023-04-06T10:58:47.004Z,10.80
2023-04-06T11:01:15.783Z,10.80
2023-04-06T11:03:54.216Z,10.80
2023-04-06T11:06:25.757Z,10.80
2023-04-06T11:08:53.282Z,10.80
2023-04-06T11:11:22.330Z,10.80
2023-04-06T11:13:53.169Z,10.80
2023-04-06T11:16:22.151Z,10.80
2023-04-06T11:18:50.936Z,10.90
2023-04-06T11:21:18.636Z,10.90
2023-04-06T11:23:45.686Z,10.90
2023-04-06T11:26:16.421Z,10.90
2023-04-06T11:28:46.616Z,10.80
2023-04-06T11:31:13.621Z,10.80
2023-04-06T11:33:40.881Z,10.80
2023-04-06T11:36:08.269Z,10.80
2023-04-06T11:38:35.458Z,10.80
2023-04-06T11:41:03.080Z,10.80
2023-04-06T11:43:31.651Z,10.80
2023-04-06T11:46:06.403Z,10.80
2023-04-06T11:48:33.396Z,10.80
2023-04-06T11:51:02.187Z,10.80
2023-04-06T11:53:30.232Z,10.80
2023-04-06T11:55:57.728Z,10.90
2023-04-06T11:58:24.636Z,10.90
2023-04-06T12:00:51.533Z,11.00
2023-04-06T12:03:18.400Z,11.00
2023-04-06T12:05:46.212Z,11.10
2023-04-06T12:08:13.138Z,11.20
2023-04-06T12:10:40.396Z,11.10
2023-04-06T12:13:07.269Z,11.20
2023-04-06T12:15:34.430Z,11.10
2023-04-06T12:18:01.497Z,11.20
2023-04-06T12:20:28.569Z,11.30
2023-04-06T12:22:55.558Z,11.30
2023-04-06T12:25:22.336Z,11.40
2023-04-06T12:27:49.178Z,11.50
2023-04-06T12:30:16.454Z,11.40
2023-04-06T12:32:43.287Z,11.40
2023-04-06T12:35:10.611Z,11.40
2023-04-06T12:37:37.907Z,11.50
2023-04-06T12:40:05.404Z,11.50
2023-04-06T12:42:32.249Z,11.50
2023-04-06T12:44:58.980Z,11.50
2023-04-06T12:47:27.528Z,11.50
2023-04-06T12:49:55.841Z,11.50
2023-04-06T12:52:22.799Z,11.50
2023-04-06T12:54:51.196Z,11.40
2023-04-06T12:57:18.311Z,11.50
2023-04-06T12:59:45.889Z,11.50
2023-04-06T13:02:13.365Z,11.50
2023-04-06T13:04:40.301Z,11.50
2023-04-06T13:07:07.149Z,11.60
2023-04-06T13:09:33.968Z,11.70
2023-04-06T13:12:02.125Z,11.80
2023-04-06T13:14:29.035Z,11.80
2023-04-06T13:16:56.024Z,11.90
2023-04-06T13:19:23.703Z,11.90
2023-04-06T13:21:50.745Z,12.00
2023-04-06T13:24:17.899Z,12.00
2023-04-06T13:26:45.019Z,12.00
2023-04-06T13:29:12.054Z,11.90
2023-04-06T13:31:39.957Z,11.70
2023-04-06T13:34:07.103Z,11.60
2023-04-06T13:36:34.078Z,11.50
2023-04-06T13:39:00.983Z,11.50
2023-04-06T13:41:27.967Z,11.40
2023-04-06T13:43:54.851Z,11.20
2023-04-06T13:46:21.765Z,11.30
2023-04-06T13:48:49.054Z,11.20
2023-04-06T13:51:16.405Z,11.10
2023-04-06T13:53:43.413Z,11.10
2023-04-06T13:56:10.539Z,11.00
2023-04-06T13:58:37.749Z,11.00
2023-04-06T14:01:11.250Z,11.00
2023-04-06T14:03:38.747Z,11.10
2023-04-06T14:06:20.881Z,11.10
2023-04-06T14:08:58.110Z,11.10
2023-04-06T14:11:25.173Z,11.20
2023-04-06T14:13:52.145Z,11.20
2023-04-06T14:16:20.779Z,11.30
2023-04-06T14:18:47.782Z,11.30
2023-04-06T14:21:14.490Z,11.30
2023-04-06T14:23:41.676Z,11.30
2023-04-06T14:26:09.595Z,11.30
2023-04-06T14:28:37.450Z,11.30
2023-04-06T14:31:12.934Z,11.40
2023-04-06T14:33:40.896Z,11.40
2023-04-06T14:36:09.736Z,11.30
2023-04-06T14:38:36.781Z,11.30
2023-04-06T14:41:03.732Z,11.30
2023-04-06T14:43:31.102Z,11.30
2023-04-06T14:46:01.868Z,11.30
2023-04-06T14:48:29.234Z,11.30
2023-04-06T14:50:59.146Z,11.40
2023-04-06T14:53:27.325Z,11.40
2023-04-06T14:55:54.160Z,11.30
2023-04-06T14:58:21.991Z,11.40
2023-04-06T15:00:49.350Z,11.30
2023-04-06T15:03:17.303Z,11.40
2023-04-06T15:05:44.350Z,11.40
2023-04-06T15:08:11.237Z,11.40
2023-04-06T15:10:38.041Z,11.40
2023-04-06T15:13:04.883Z,11.40
2023-04-06T15:15:31.972Z,11.40
2023-04-06T15:17:58.955Z,11.40
2023-04-06T15:20:25.914Z,11.40
2023-04-06T15:22:52.827Z,11.40
2023-04-06T15:25:19.786Z,11.40
2023-04-06T15:27:46.635Z,11.40
2023-04-06T15:30:13.832Z,11.40
2023-04-06T15:32:40.974Z,11.40
2023-04-06T15:35:12.304Z,11.50
2023-04-06T15:37:39.919Z,11.40
2023-04-06T15:40:07.459Z,11.40
2023-04-06T15:42:34.328Z,11.40
2023-04-06T15:45:01.681Z,11.40
2023-04-06T15:47:28.568Z,11.40
2023-04-06T15:49:55.352Z,11.40
2023-04-06T15:52:23.010Z,11.40
2023-04-06T15:54:50.158Z,11.40
2023-04-06T15:57:16.947Z,11.50
2023-04-06T15:59:43.725Z,11.40
2023-04-06T16:02:10.631Z,11.40
2023-04-06T16:04:37.899Z,11.40
2023-04-06T16:07:05.112Z,11.40
2023-04-06T16:09:32.057Z,11.40
2023-04-06T16:11:58.811Z,11.40
2023-04-06T16:14:25.755Z,11.40
2023-04-06T16:16:53.193Z,11.40
2023-04-06T16:19:19.996Z,11.40
2023-04-06T16:21:47.597Z,11.40
2023-04-06T16:24:14.414Z,11.30
2023-04-06T16:26:41.931Z,11.30
2023-04-06T16:29:10.417Z,11.40
2023-04-06T16:31:37.243Z,11.30
2023-04-06T16:34:04.161Z,11.30
2023-04-06T16:36:34.149Z,11.30
2023-04-06T16:39:02.333Z,11.30
2023-04-06T16:41:29.576Z,11.20
2023-04-06T16:43:57.480Z,11.20
2023-04-06T16:46:34.707Z,11.30
2023-04-06T16:49:03.353Z,11.30
2023-04-06T16:51:35.960Z,11.20
2023-04-06T16:54:03.091Z,11.20
2023-04-06T16:56:35.034Z,11.20
2023-04-06T16:59:01.862Z,11.30
2023-04-06T17:01:29.874Z,11.30
2023-04-06T17:03:57.033Z,11.20
2023-04-06T17:06:24.210Z,11.00
2023-04-06T17:08:51.370Z,11.00
2023-04-06T17:11:23.460Z,10.90
2023-04-06T17:13:54.831Z,10.90
2023-04-06T17:16:21.708Z,10.80
2023-04-06T17:18:48.523Z,10.80
2023-04-06T17:21:17.107Z,10.80
2023-04-06T17:23:47.675Z,10.80
2023-04-06T17:26:14.685Z,10.70
2023-04-06T17:28:41.435Z,10.60
2023-04-06T17:31:10.670Z,10.70
2023-04-06T17:33:38.845Z,10.70
2023-04-06T17:36:07.823Z,10.70
2023-04-06T17:38:34.741Z,10.70
2023-04-06T17:41:04.878Z,10.70
2023-04-06T17:43:32.304Z,10.60
2023-04-06T17:45:59.562Z,10.70
2023-04-06T17:48:27.778Z,10.60
2023-04-06T17:50:54.543Z,10.60
2023-04-06T17:53:22.021Z,10.50
2023-04-06T17:55:48.886Z,10.50
2023-04-06T17:58:15.666Z,10.50
2023-04-06T18:00:42.673Z,10.50
2023-04-06T18:03:09.543Z,10.50
2023-04-06T18:05:36.357Z,10.50
2023-04-06T18:08:03.136Z,10.50
2023-04-06T18:10:29.991Z,10.40
2023-04-06T18:12:57.283Z,10.40
2023-04-06T18:15:24.107Z,10.40
2023-04-06T18:17:51.057Z,10.40
2023-04-06T18:20:18.019Z,10.40
2023-04-06T18:22:44.780Z,10.30
2023-04-06T18:25:12.994Z,10.20
2023-04-06T18:27:39.847Z,10.20
2023-04-06T18:30:07.290Z,10.20
2023-04-06T18:32:34.243Z,10.20
2023-04-06T18:35:01.097Z,10.20
2023-04-06T18:37:27.987Z,10.20
2023-04-06T18:39:54.898Z,10.20
2023-04-06T18:42:21.737Z,10.10
2023-04-06T18:44:48.695Z,10.10
2023-04-06T18:47:15.775Z,10.10
2023-04-06T18:49:42.651Z,10.10
2023-04-06T18:52:09.478Z,10.10
2023-04-06T18:54:36.350Z,10.00
2023-04-06T18:57:04.163Z,10.10
2023-04-06T18:59:31.808Z,10.10
2023-04-06T19:01:59.352Z,10.10
2023-04-06T19:04:27.043Z,10.10
2023-04-06T19:06:55.331Z,10.00
2023-04-06T19:09:22.224Z,10.00
2023-04-06T19:11:51.488Z,10.00
2023-04-06T19:14:18.366Z,10.00
2023-04-06T19:16:52.062Z,9.90
2023-04-06T19:19:19.783Z,10.00
2023-04-06T19:21:46.757Z,9.90
2023-04-06T19:24:13.680Z,9.90
2023-04-06T19:26:42.446Z,9.90
2023-04-06T19:29:10.445Z,9.90
2023-04-06T19:31:37.382Z,9.90
2023-04-06T19:34:04.920Z,9.90
2023-04-06T19:36:32.403Z,9.80
2023-04-06T19:38:59.654Z,9.70
2023-04-06T19:41:27.375Z,9.70
2023-04-06T19:43:54.250Z,9.50
2023-04-06T19:46:21.647Z,9.40
2023-04-06T19:48:48.535Z,9.40
2023-04-06T19:51:15.522Z,9.30
2023-04-06T19:53:42.601Z,9.20
2023-04-06T19:56:10.296Z,9.10
2023-04-06T19:58:38.493Z,9.00
2023-04-06T20:01:06.812Z,8.90
2023-04-06T20:03:33.782Z,9.00
2023-04-06T20:06:01.146Z,9.00
2023-04-06T20:08:29.821Z,8.90
2023-04-06T20:11:04.219Z,8.90
2023-04-06T20:13:33.294Z,8.80
2023-04-06T20:16:00.245Z,8.80
2023-04-06T20:18:27.053Z,8.80
2023-04-06T20:20:54.572Z,8.70
2023-04-06T20:23:21.353Z,8.60
2023-04-06T20:25:48.197Z,8.60
2023-04-06T20:28:15.065Z,8.70
2023-04-06T20:30:41.907Z,8.60
2023-04-06T20:33:08.770Z,8.60
2023-04-06T20:35:35.849Z,8.60
2023-04-06T20:38:02.806Z,8.50
2023-04-06T20:40:29.753Z,8.50
2023-04-06T20:42:57.500Z,8.50
2023-04-06T20:45:25.910Z,8.50
2023-04-06T20:47:55.306Z,8.50
2023-04-06T20:50:25.055Z,8.50
2023-04-06T20:52:51.861Z,8.50
2023-04-06T20:55:18.754Z,8.40
2023-04-06T20:57:46.436Z,8.40
2023-04-06T21:00:13.571Z,8.40
2023-04-06T21:02:41.177Z,8.40
2023-04-06T21:05:10.389Z,8.20
2023-04-06T21:07:40.762Z,8.10
2023-04-06T21:10:08.082Z,8.00
2023-04-06T21:12:35.002Z,7.90
2023-04-06T21:15:02.225Z,7.80
2023-04-06T21:17:29.074Z,7.80
2023-04-06T21:19:56.020Z,7.80
2023-04-06T21:22:23.493Z,7.80
2023-04-06T21:24:50.469Z,7.80
2023-04-06T21:27:17.314Z,7.80
2023-04-06T21:29:44.073Z,7.80
2023-04-06T21:32:11.012Z,7.90
2023-04-06T21:34:37.801Z,7.80
2023-04-06T21:37:04.565Z,7.80
2023-04-06T21:39:31.362Z,7.60
2023-04-06T21:41:58.658Z,7.50
2023-04-06T21:44:25.495Z,7.60
2023-04-06T21:46:52.279Z,7.70
2023-04-06T21:49:19.162Z,7.70
2023-04-06T21:51:46.162Z,7.70
2023-04-06T21:54:13.178Z,7.70
2023-04-06T21:56:39.963Z,7.80
2023-04-06T21:59:06.849Z,7.70
2023-04-06T22:01:33.699Z,7.60
2023-04-06T22:04:02.371Z,7.30
2023-04-06T22:06:30.091Z,7.20
2023-04-06T22:08:58.327Z,7.30
2023-04-06T22:11:25.952Z,7.30
2023-04-06T22:13:52.872Z,7.30
2023-04-06T22:16:19.865Z,7.10
2023-04-06T22:18:46.750Z,7.00
2023-04-06T22:21:13.710Z,6.90
2023-04-06T22:23:42.540Z,6.90
2023-04-06T22:26:10.782Z,6.90
2023-04-06T22:28:38.008Z,6.90
2023-04-06T22:31:04.875Z,6.90
2023-04-06T22:33:31.864Z,6.90
2023-04-06T22:35:58.776Z,6.80
2023-04-06T22:38:25.647Z,6.90
2023-04-06T22:40:52.471Z,6.80
2023-04-06T22:43:19.304Z,6.80
2023-04-06T22:45:46.131Z,6.80
2023-04-06T22:48:12.962Z,6.80
2023-04-06T22:50:39.794Z,6.70
2023-04-06T22:53:07.201Z,6.70
2023-04-06T22:55:34.132Z,6.70
2023-04-06T22:58:01.030Z,6.80
2023-04-06T23:00:27.965Z,6.80
2023-04-06T23:02:54.874Z,6.80
2023-04-06T23:05:21.889Z,6.80
2023-04-06T23:07:48.886Z,6.70
2023-04-06T23:10:15.740Z,6.70
2023-04-06T23:12:42.644Z,6.70
2023-04-06T23:15:10.172Z,6.70
2023-04-06T23:17:37.114Z,6.80
2023-04-06T23:20:04.484Z,6.70
2023-04-06T23:22:31.302Z,6.70
2023-04-06T23:24:58.061Z,6.70
2023-04-06T23:27:24.887Z,6.70
2023-04-06T23:29:51.834Z,6.60
2023-04-06T23:32:18.712Z,6.60
2023-04-06T23:34:45.678Z,6.60
2023-04-06T23:37:12.644Z,6.60
2023-04-06T23:39:39.565Z,6.60
2023-04-06T23:42:06.486Z,6.60
2023-04-06T23:44:33.289Z,6.60
2023-04-06T23:47:00.046Z,6.60
2023-04-06T23:49:27.185Z,6.60
2023-04-06T23:51:53.938Z,6.60
2023-04-06T23:54:20.775Z,6.50
2023-04-06T23:56:47.656Z,6.50
2023-04-06T23:59:14.735Z,6.30
